Irving, TX (75063)

12:30 AM CDT on August 24, 2016 (GMT -0500)
Hackberry Creek | | Change Station

Elev 507 ft 32.91 °N, 96.98 °W | Updated 1 minute ago

Clear
Clear
82.4 °F
Feels Like 88 °F
N
3.2
Wind Variable Wind from SSE
Gusts 7.8 mph

Today
High -- | Low -- °F
--% Chance of Precip.
Yesterday
High -- | Low -- °F
Precip. -- in
Pressure 30.04 in
Visibility 10.0 miles
Clouds Clear
Heat Index 88 °F
Dew Point 74 °F
Humidity 75%
Rainfall 0.00 in
Snow Depth Not available.
6:57 AM 8:02 PM
Waning Gibbous, 61% visible
METAR KDFW 240453Z 17012KT 10SM CLR 28/22 A3007 RMK AO2 SLP173 T02830222
Pressure 30.04 in
Visibility 10.0 miles
Clouds Clear
Heat Index 88 °F
Dew Point 74 °F
Humidity 75%
Rainfall 0.00 in
Snow Depth Not available.
6:57 AM 8:02 PM
Waning Gibbous, 61% visible
METAR KDFW 240453Z 17012KT 10SM CLR 28/22 A3007 RMK AO2 SLP173 T02830222

10-Day Weather Forecast

Almanac

Astronomy

Aug. 24, 2016 Rise Set
Actual Time
Civil Twilight
Nautical Twilight
Astronomical Twilight
Moon
Length of Visible Light
Length of Day
Tomorrow will be .
, % of the Moon is Illuminated

Today's Extremes

State Highs State Lows

Community

WunderPhotos

Upload Photos

1,934,554 photos uploaded!

WunderBlog® & News

Nearby

Air Quality

  Air Quality AQ Index Pollutant
Not available.

Snow Depth

Station Depth Elevation

Earthquake Activity

City Distance Mag. Time & Date
Minimum magnitude displayed is 2.5.

Coastal Water Temperatures

Place Temperature

Stations

Nearby Weather Stations

Station Location Temp. Windchill Dew Point Humidity Wind Precip. Elev Updated Type
                   

Watches & Warnings

There are currently no watches in effect.